Latest Coastal Weather Observations for Cape Naturaliste

IDW60701

Issued at 4:01 pm WST Sunday 1 May 2016 (issued every 10 minutes, with the page automatically refreshed every 10 minutes)

About coastal observations | Map of coastal stations | Coastal observations for WA | Marine services | Other Formats
Station Details ID: 009519 Name: CAPE NATURALISTE Lat: -33.54 Lon: 115.02 Height: 109.0 m
Data from the previous 72 hours. | See also: Recent months at Cape Naturaliste
Date/Time
WST
Temp

°C
Wind Pressure Rain
since 9am
mm
Weather Cloud Vis
km
Sea
Height
m
Swell
Dir
 
Speed
knots
Gust
knots
hPa Trend Height
m
Period
s
Dir
01/04:00pm 16.8 SW 12 15 1021.0 - 0.0 - - - - - - -
01/03:30pm 16.5 SW 11 15 1020.9 - 0.0 - - - - - - -
01/03:00pm 18.2 SW 6 8 1020.8 - 0.0 - - - - - - -
01/02:30pm 16.8 WSW 5 7 1020.8 - 0.0 - - - - - - -
01/02:00pm 14.4 SW 9 14 1021.1 - 0.0 - - - - - - -
01/01:30pm 14.9 WSW 14 18 1021.3 - 0.0 - - - - - - -
01/01:00pm 18.6 SW 8 10 1021.5 - 0.0 - - - - - - -
01/12:30pm 18.0 SSW 9 13 1021.9 - 0.0 - - - - - - -
01/12:00pm 16.7 SW 10 15 1022.5 - 0.0 - - - - - - -
01/11:30am 17.5 SW 8 18 1022.6 - 0.0 - - - - - - -
01/11:00am 17.8 SW 8 10 1022.8 - 0.0 - - - - - - -
01/10:30am 15.3 W 11 15 1023.0 - 0.0 - - - - - - -
01/10:00am 15.3 ESE 3 4 1023.2 - 0.0 - - - - - - -
01/09:30am 14.8 NE 3 5 1023.1 - 0.0 - - - - - - -
01/09:00am 14.2 ESE 1 4 1023.1 - 0.4 - - - - - - -
01/08:30am 13.6 ESE 1 5 1022.9 - 0.4 - - - - - - -
01/08:00am 13.1 ENE 5 6 1022.5 - 0.4 - - - - - - -
01/07:30am 12.6 SE 6 8 1022.3 - 0.4 - - - - - - -
01/07:00am 12.6 SE 6 7 1022.0 - 0.4 - - - - - - -
01/06:30am 12.5 SE 7 9 1021.8 - 0.4 - - - - - - -
01/06:00am 13.1 CALM 0 0 1021.4 - 0.4 - - - - - - -
01/05:30am 12.9 CALM 0 1 1021.3 - 0.4 - - - - - - -
01/05:00am 12.7 E 3 4 1021.3 - 0.4 - - - - - - -
01/04:30am 12.4 E 6 6 1021.1 - 0.4 - - - - - - -
01/04:00am 12.3 SE 6 8 1021.2 - 0.4 - - - - - - -
01/03:30am 12.5 SE 4 6 1021.3 - 0.4 - - - - - - -
01/03:00am 12.4 SSE 6 7 1021.4 - 0.4 - - - - - - -
01/02:30am 12.3 SSE 6 7 1021.7 - 0.4 - - - - - - -
01/02:00am 12.4 SSE 7 8 1021.8 - 0.4 - - - - - - -
01/01:30am 12.5 SSE 7 9 1021.8 - 0.4 - - - - - - -
01/01:00am 12.6 SSE 8 10 1021.8 - 0.4 - - - - - - -
01/12:30am 12.5 SSE 9 11 1021.7 - 0.4 - - - - - - -
01/12:00am 12.4 SSE 8 11 1021.9 - 0.4 - - - - - - -
 
Date/Time
WST
Temp

°C
Wind Pressure Rain
since 9am
mm
Weather Cloud Vis
km
Sea
Height
m
Swell
Dir
 
Speed
knots
Gust
knots
hPa Trend Height
m
Period
s
Dir
30/11:30pm 12.3 SSE 9 11 1021.9 - 0.4 - - - - - - -
30/11:00pm 12.4 SSE 9 11 1021.9 - 0.4 - - - - - - -
30/10:30pm 13.3 S 10 14 1021.8 - 0.4 - - - - - - -
30/10:00pm 12.8 SSE 7 10 1022.0 - 0.4 - - - - - - -
30/09:30pm 12.7 SSE 8 10 1021.9 - 0.4 - - - - - - -
30/09:00pm 12.6 SSE 6 7 1021.9 - 0.4 - - - - - - -
30/08:30pm 13.0 SE 6 7 1021.8 - 0.4 - - - - - - -
30/08:00pm 13.3 S 6 9 1021.9 - 0.4 - - - - - - -
30/07:30pm 13.5 SSE 7 8 1021.8 - 0.4 - - - - - - -
30/07:00pm 13.4 SSE 8 9 1021.4 - 0.4 - - - - - - -
30/06:30pm 13.5 SSE 7 8 1021.1 - 0.4 - - - - - - -
30/06:00pm 13.7 S 7 8 1020.8 - 0.4 - - - - - - -
30/05:30pm 14.1 S 9 10 1020.7 - 0.4 - - - - - - -
30/05:00pm 14.7 S 10 14 1020.5 - 0.4 - - - - - - -
30/04:30pm 15.2 S 10 14 1020.3 - 0.4 - - - - - - -
30/04:00pm 16.1 S 11 16 1020.2 - 0.4 - - - - - - -
30/03:30pm 16.2 SSW 11 15 1020.1 - 0.4 - - - - - - -
30/03:00pm 16.5 S 11 15 1019.9 - 0.4 - - - - - - -
30/02:30pm 16.2 S 12 16 1019.7 - 0.4 - - - - - - -
30/02:00pm 16.5 S 10 13 1019.7 - 0.4 - - - - - - -
30/01:30pm 15.5 S 9 13 1019.8 - 0.4 - - - - - - -
30/01:00pm 15.4 S 12 16 1019.9 - 0.4 - - - - - - -
30/12:30pm 16.6 S 10 16 1020.1 - 0.4 - - - - - - -
30/12:00pm 16.7 S 7 9 1020.4 - 0.4 Rain - - - - - -
30/11:30am 17.0 S 6 11 1020.4 - 0.0 - - - - - - -
30/11:00am 15.0 S 9 13 1020.6 - 0.0 - - - - - - -
30/10:30am 13.5 S 8 12 1020.5 - 0.0 - - - - - - -
30/10:00am 14.6 S 13 18 1020.4 - 0.0 - - - - - - -
30/09:30am 13.9 SW 11 16 1020.3 - 0.0 - - - - - - -
30/09:00am 15.5 S 11 15 1020.2 - 3.0 - - - - - - -
30/08:30am 14.6 SSE 9 13 1020.0 - 3.0 - - - - - - -
30/08:00am 11.8 S 8 11 1019.6 - 3.0 - - - - - - -
30/07:30am 11.9 SSE 9 11 1019.1 - 2.8 - - - - - - -
30/07:00am 11.7 SSE 11 18 1018.7 - 2.8 - - - - - - -
30/06:30am 11.8 SSE 11 18 1018.4 - 2.8 - - - - - - -
30/06:18am 12.1 S 17 27 1018.5 - 2.8 - - - - - - -
30/06:00am 13.8 SSW 14 21 1018.0 - 2.8 - - - - - - -
30/05:30am 13.0 S 7 10 1018.1 - 2.8 - - - - - - -
30/05:00am 13.1 S 11 16 1017.7 - 2.8 - - - - - - -
30/04:30am 13.4 SSW 17 25 1017.5 - 2.8 - - - - - - -
30/04:02am 13.5 SSW 18 28 1017.1 - 2.8 - - - - - - -
30/04:00am 13.6 SSW 17 26 1017.0 - 2.8 - - - - - - -
30/03:33am 13.7 SSW 15 26 1016.8 - 2.8 - - - - - - -
30/03:30am 13.7 SSW 15 20 1016.9 - 2.8 - - - - - - -
30/03:00am 13.2 SW 14 20 1016.9 - 2.8 - - - - - - -
30/02:30am 13.7 SSW 13 19 1016.7 - 2.8 - - - - - - -
30/02:00am 13.3 SSW 11 17 1016.6 - 2.8 - - - - - - -
30/01:30am 13.5 SSW 16 22 1016.5 - 2.8 - - - - - - -
30/01:00am 13.8 SSW 17 24 1016.2 - 2.8 - - - - - - -
30/12:30am 14.2 SSW 18 25 1016.1 - 2.8 - - - - - - -
30/12:00am 14.6 SW 17 24 1015.7 - 2.8 - - - - - - -
 
Date/Time
WST
Temp

°C
Wind Pressure Rain
since 9am
mm
Weather Cloud Vis
km
Sea
Height
m
Swell
Dir
 
Speed
knots
Gust
knots
hPa Trend Height
m
Period
s
Dir
29/11:30pm 14.5 SSW 19 25 1015.7 - 2.8 - - - - - - -
29/11:00pm 14.0 SSW 21 28 1015.8 - 2.8 - - - - - - -
29/10:33pm 14.1 SSW 20 30 1015.8 - 2.8 - - - - - - -
29/10:30pm 14.0 SSW 21 30 1015.9 - 2.8 - - - - - - -
29/10:15pm 14.3 SSW 15 25 1015.7 - 2.8 - - - - - - -
29/10:00pm 14.0 SSW 19 27 1015.6 - 2.8 - - - - - - -
29/09:30pm 14.5 SSW 19 26 1015.2 - 2.8 - - - - - - -
29/09:00pm 14.5 SSW 19 29 1014.8 - 2.8 - - - - - - -
29/08:42pm 15.2 SSW 19 29 1014.6 - 2.8 - - - - - - -
29/08:30pm 15.2 SSW 18 27 1014.5 - 2.8 - - - - - - -
29/08:11pm 15.2 SSW 20 33 1014.3 - 2.8 - - - - - - -
29/08:00pm 15.6 SSW 20 28 1014.1 - 2.8 - - - - - - -
29/07:30pm 15.8 SW 18 24 1013.7 - 2.8 - - - - - - -
29/07:00pm 15.7 SW 20 27 1013.3 - 2.8 - - - - - - -
29/06:30pm 15.2 SW 19 26 1012.9 - 2.8 - - - - - - -
29/06:09pm 14.6 SSW 19 29 1012.7 - 2.8 - - - - - - -
29/06:00pm 14.2 SSW 21 30 1012.5 - 2.8 Recent precip. - - - - - -
29/05:56pm 14.3 SSW 19 30 1012.5 - 2.8 - - - - - - -
29/05:30pm 14.1 SSW 20 27 1012.1 - 2.8 - - - - - - -
29/05:00pm 14.9 SSW 23 34 1011.9 - 2.6 - - - - - - -
29/04:52pm 14.8 SSW 23 33 1011.8 - 2.6 - - - - - - -
29/04:46pm 14.4 SSW 25 33 1011.7 - 2.6 - - - - - - -
29/04:33pm 15.3 WSW 21 31 1011.7 - 1.8 - - - - - - -
29/04:30pm 15.3 SW 23 31 1011.7 - 1.8 - - - - - - -
29/04:16pm 15.7 SW 22 33 1011.6 - 1.8 - - - - - - -
29/04:14pm 16.0 WSW 22 30 1011.6 - 1.8 - - - - - - -
29/04:03pm 15.8 WSW 20 32 1011.7 - 1.6 - - - - - - -
29/04:00pm 15.6 WSW 20 27 1011.8 - 1.6 - - - - - - -
29/03:33pm 17.5 W 25 39 1011.5 - 0.2 - - - - - - -
29/03:30pm 18.2 W 24 32 1011.6 - 0.2 - - - - - - -
29/03:00pm 17.0 W 22 32 1011.7 - 0.0 - - - - - - -
29/02:56pm 16.9 W 22 32 1011.7 - 0.0 - - - - - - -
29/02:30pm 19.3 W 23 30 1011.6 - 0.0 - - - - - - -
29/02:00pm 19.3 W 23 31 1011.6 - 0.0 - - - - - - -
29/01:30pm 19.1 W 24 30 1011.9 - 0.0 - - - - - - -
29/01:03pm 18.7 WSW 22 32 1012.1 - 0.0 - - - - - - -
29/01:00pm 18.3 WSW 22 29 1012.1 - 0.0 - - - - - - -
29/12:30pm 19.2 W 21 29 1012.4 - 0.0 - - - - - - -
29/12:00pm 18.7 W 24 31 1012.7 - 0.0 - - - - - - -
29/11:43am 18.2 W 22 32 1012.8 - 0.0 - - - - - - -
29/11:30am 17.9 WSW 22 31 1013.0 - 0.0 - - - - - - -
29/11:00am 19.8 W 22 33 1013.1 - 0.0 - - - - - - -
29/10:30am 17.7 WSW 22 32 1013.3 - 0.0 - - - - - - -
29/10:00am 18.2 W 24 31 1013.1 - 0.0 - - - - - - -
29/09:30am 18.1 W 22 29 1013.2 - 0.0 - - - - - - -
29/09:00am 17.2 W 21 32 1013.4 - 1.0 - - - - - - -
29/08:51am 16.9 WSW 22 32 1013.4 - 1.0 - - - - - - -
29/08:30am 17.5 W 23 32 1013.3 - 1.0 - - - - - - -
29/08:00am 17.8 W 22 27 1013.1 - 1.0 - - - - - - -
29/07:30am 17.3 W 21 27 1012.9 - 1.0 - - - - - - -
29/07:00am 16.9 W 19 27 1012.9 - 1.0 - - - - - - -
29/06:30am 16.8 W 21 26 1012.9 - 1.0 - - - - - - -
29/06:03am 17.1 W 20 30 1013.0 - 1.0 - - - - - - -
29/06:00am 17.2 W 18 24 1013.0 - 1.0 - - - - - - -
29/05:30am 16.4 W 14 21 1013.0 - 1.0 - - - - - - -
29/05:00am 16.0 W 20 29 1013.1 - 1.0 - - - - - - -
29/04:56am 16.3 W 18 29 1013.0 - 1.0 - - - - - - -
29/04:30am 15.9 WSW 20 27 1013.1 - 1.0 - - - - - - -
29/04:00am 16.3 WSW 16 20 1013.2 - 1.0 - - - - - - -
29/03:30am 16.2 WSW 18 24 1013.5 - 1.0 - - - - - - -
29/03:00am 16.5 WSW 19 24 1013.6 - 1.0 - - - - - - -
29/02:30am 16.6 WSW 19 26 1013.7 - 1.0 - - - - - - -
29/02:00am 16.6 WSW 15 20 1013.9 - 1.0 - - - - - - -
29/01:30am 16.4 WSW 18 23 1014.0 - 1.0 - - - - - - -
29/01:00am 16.4 WSW 14 20 1013.6 - 1.0 - - - - - - -
29/12:30am 16.8 WSW 17 23 1013.6 - 1.0 - - - - - - -
29/12:00am 16.6 WSW 17 22 1013.7 - 1.0 - - - - - - -
 
Date/Time
WST
Temp

°C
Wind Pressure Rain
since 9am
mm
Weather Cloud Vis
km
Sea
Height
m
Swell
Dir
 
Speed
knots
Gust
knots
hPa Trend Height
m
Period
s
Dir
28/11:30pm 16.1 WSW 16 19 1013.9 - 1.0 - - - - - - -
28/11:00pm 16.1 WSW 17 24 1014.2 - 1.0 - - - - - - -
28/10:30pm 16.5 WSW 17 23 1014.4 - 1.0 - - - - - - -
28/10:00pm 16.2 SW 17 23 1014.3 - 1.0 - - - - - - -
28/09:30pm 16.5 SW 17 23 1014.3 - 1.0 - - - - - - -
28/09:00pm 16.1 SW 16 22 1014.3 - 1.0 - - - - - - -
28/08:30pm 15.3 SW 17 22 1014.3 - 1.0 - - - - - - -
28/08:00pm 16.6 SW 17 22 1014.2 - 1.0 - - - - - - -
28/07:30pm 16.5 SW 17 23 1014.1 - 1.0 - - - - - - -
28/07:00pm 16.6 SW 18 26 1013.9 - 1.0 - - - - - - -
28/06:30pm 16.7 SW 19 26 1013.4 - 1.0 - - - - - - -
28/06:00pm 16.4 SW 20 26 1012.9 - 1.0 - - - - - - -
28/05:30pm 16.9 SW 21 27 1012.8 - 1.0 - - - - - - -
28/05:00pm 17.3 SW 21 27 1012.8 - 1.0 - - - - - - -
28/04:30pm 17.5 SW 20 26 1012.5 - 1.0 - - - - - - -

Other Formats:

Comma delimited format used in spreadsheet applications
http://www.bom.gov.au/fwo/IDW60701/IDW60701.94600.axf

JavaScript Object Notation format (JSON) in row-major order
http://www.bom.gov.au/fwo/IDW60701/IDW60701.94600.json